Aérodrome :
LOGIN :

S'inscrire | Disclaimer

   EN    FR    IT 

 










Légende :    VFR   VFR Marginal   IFR   IFR Intensif   IFR Très Intensif
Visi : 
Plafond : 
>= 8 km
>= 3000ft
5 à 8 km
1000 à 3000 ft
1500m à 5 km
500 à 1000 ft
800 à 1500m
200 à 500 ft
< 800m
< 200 ft
Symboles :   Orages  Brouillard  Fortes neiges  Fortes précipitations  Vent > 20 kt
SIGMETs :   Divers  Orages  Givrage  Turbulence  Onde Orograph.  Cendres Volcan.






- Altitude de l'aérodrome : 377 ft


UUBW - Ramenskoye

DERNIER METAR :
  • 250530Z 24002MPS 9999 BKN038 01/M00 Q1012 R30/210050 NOSIG

METARs EXPIRÉS :
  • 250500Z 26002MPS 9999 BKN049 01/00 Q1012 R30/210050 NOSIG
  • 250430Z 25002MPS 9999 BKN011 01/00 Q1012 R30/210250 NOSIG
  • 250400Z 24001MPS 9999 BKN013 01/M00 Q1011 R30/210250 NOSIG
  • 250330Z 28002MPS 9999 BKN040 01/00 Q1011 R30/210250 NOSIG
  • 250300Z 27002MPS 9999 BKN017 01/00 Q1011 R30/210250 NOSIG

TAF TAF UUBW
Valide du 25 à 06h jusqu'au 26 à 06h UTC


250453Z 2506/2606 27003G08MPS 6000 FEW006 BKN011 TX02/2511Z TNM02/2605Z
TEMPO 2506/2509 2100 -SHSN BKN006 SCT020CB



MET'MAP, la Météo Aéronautique d'un coup d'oeil ! - Copyright ORBIFLY Décembre 2007 - Disclaimer

ORBIFLY MET'MAP TEAM :

Programmation & Développement : Alexandra Zaïnal
Sur une idée originale de : Baudouin d'Aumeries
Assistance à la programmation : Marc-Olivier Méhu
Soutien technique & logistique : Manuel Goepfert

Contact : metmap@orbifly.com




SOURCES & CREDITS :

   NOAA